sensor_id;sensor_type;location;lat;lon;timestamp;P1;durP1;ratioP1;P2;durP2;ratioP2
8704;SDS011;4389;41.932;25.904;2024-02-26T00:02:31;13.71;;;8.11;;
8704;SDS011;4389;41.932;25.904;2024-02-26T00:05:03;14.80;;;8.80;;
8704;SDS011;4389;41.932;25.904;2024-02-26T00:07:31;10.53;;;8.13;;
8704;SDS011;4389;41.932;25.904;2024-02-26T00:09:58;8.87;;;7.00;;
8704;SDS011;4389;41.932;25.904;2024-02-26T00:12:24;12.90;;;7.87;;
8704;SDS011;4389;41.932;25.904;2024-02-26T00:14:51;10.17;;;7.03;;
8704;SDS011;4389;41.932;25.904;2024-02-26T00:17:19;9.27;;;6.33;;
8704;SDS011;4389;41.932;25.904;2024-02-26T00:19:47;8.63;;;6.00;;
8704;SDS011;4389;41.932;25.904;2024-02-26T00:22:14;7.87;;;5.93;;
8704;SDS011;4389;41.932;25.904;2024-02-26T00:24:41;11.43;;;6.27;;
8704;SDS011;4389;41.932;25.904;2024-02-26T00:27:07;8.43;;;5.90;;
8704;SDS011;4389;41.932;25.904;2024-02-26T00:29:34;8.07;;;5.80;;
8704;SDS011;4389;41.932;25.904;2024-02-26T00:32:00;9.73;;;6.90;;
8704;SDS011;4389;41.932;25.904;2024-02-26T00:34:27;13.03;;;9.03;;
8704;SDS011;4389;41.932;25.904;2024-02-26T00:36:55;13.23;;;10.30;;
8704;SDS011;4389;41.932;25.904;2024-02-26T00:39:22;13.13;;;9.00;;
8704;SDS011;4389;41.932;25.904;2024-02-26T00:41:49;11.90;;;8.97;;
8704;SDS011;4389;41.932;25.904;2024-02-26T00:44:16;11.03;;;9.00;;
8704;SDS011;4389;41.932;25.904;2024-02-26T00:46:43;10.13;;;8.80;;
8704;SDS011;4389;41.932;25.904;2024-02-26T00:49:10;14.23;;;10.43;;
8704;SDS011;4389;41.932;25.904;2024-02-26T00:51:37;12.13;;;9.73;;
8704;SDS011;4389;41.932;25.904;2024-02-26T00:54:05;13.87;;;9.27;;
8704;SDS011;4389;41.932;25.904;2024-02-26T00:56:32;10.10;;;9.10;;
8704;SDS011;4389;41.932;25.904;2024-02-26T00:58:59;7.17;;;6.03;;
8704;SDS011;4389;41.932;25.904;2024-02-26T01:01:26;8.47;;;6.27;;
8704;SDS011;4389;41.932;25.904;2024-02-26T01:03:53;32.50;;;8.83;;
8704;SDS011;4389;41.932;25.904;2024-02-26T01:06:19;6.60;;;5.90;;
8704;SDS011;4389;41.932;25.904;2024-02-26T01:08:47;8.13;;;6.17;;
8704;SDS011;4389;41.932;25.904;2024-02-26T01:11:15;5.80;;;5.17;;
8704;SDS011;4389;41.932;25.904;2024-02-26T01:13:42;6.47;;;5.50;;
8704;SDS011;4389;41.932;25.904;2024-02-26T01:16:09;6.90;;;5.23;;
8704;SDS011;4389;41.932;25.904;2024-02-26T01:18:36;13.23;;;6.90;;
8704;SDS011;4389;41.932;25.904;2024-02-26T01:21:03;10.07;;;6.10;;
8704;SDS011;4389;41.932;25.904;2024-02-26T01:23:32;9.70;;;6.30;;
8704;SDS011;4389;41.932;25.904;2024-02-26T01:25:59;8.73;;;6.10;;
8704;SDS011;4389;41.932;25.904;2024-02-26T01:28:27;6.43;;;5.47;;
8704;SDS011;4389;41.932;25.904;2024-02-26T01:30:54;10.13;;;6.17;;
8704;SDS011;4389;41.932;25.904;2024-02-26T01:33:20;12.40;;;7.20;;
8704;SDS011;4389;41.932;25.904;2024-02-26T01:35:47;12.17;;;6.97;;
8704;SDS011;4389;41.932;25.904;2024-02-26T01:38:14;8.37;;;6.20;;
8704;SDS011;4389;41.932;25.904;2024-02-26T01:40:41;8.83;;;6.80;;
8704;SDS011;4389;41.932;25.904;2024-02-26T01:43:08;8.60;;;6.60;;
8704;SDS011;4389;41.932;25.904;2024-02-26T01:45:36;9.47;;;7.50;;
8704;SDS011;4389;41.932;25.904;2024-02-26T01:48:03;10.30;;;7.27;;
8704;SDS011;4389;41.932;25.904;2024-02-26T01:50:31;10.17;;;7.80;;
8704;SDS011;4389;41.932;25.904;2024-02-26T01:52:59;10.17;;;8.17;;
8704;SDS011;4389;41.932;25.904;2024-02-26T01:55:27;12.33;;;7.73;;
8704;SDS011;4389;41.932;25.904;2024-02-26T01:57:54;22.03;;;9.73;;
8704;SDS011;4389;41.932;25.904;2024-02-26T02:00:21;10.97;;;9.70;;
8704;SDS011;4389;41.932;25.904;2024-02-26T02:02:53;13.00;;;10.63;;
8704;SDS011;4389;41.932;25.904;2024-02-26T02:05:20;13.27;;;10.60;;
8704;SDS011;4389;41.932;25.904;2024-02-26T02:07:48;17.63;;;10.83;;
8704;SDS011;4389;41.932;25.904;2024-02-26T02:10:16;15.77;;;11.07;;
8704;SDS011;4389;41.932;25.904;2024-02-26T02:12:47;12.97;;;11.40;;
8704;SDS011;4389;41.932;25.904;2024-02-26T02:15:14;15.83;;;12.00;;
8704;SDS011;4389;41.932;25.904;2024-02-26T02:17:41;15.03;;;12.13;;
8704;SDS011;4389;41.932;25.904;2024-02-26T02:20:14;16.63;;;11.40;;
8704;SDS011;4389;41.932;25.904;2024-02-26T02:22:43;14.40;;;11.67;;
8704;SDS011;4389;41.932;25.904;2024-02-26T02:25:10;12.47;;;10.77;;
8704;SDS011;4389;41.932;25.904;2024-02-26T02:27:37;16.83;;;10.90;;
8704;SDS011;4389;41.932;25.904;2024-02-26T02:30:06;11.87;;;9.97;;
8704;SDS011;4389;41.932;25.904;2024-02-26T02:32:34;13.33;;;10.20;;
8704;SDS011;4389;41.932;25.904;2024-02-26T02:35:02;11.37;;;8.93;;
8704;SDS011;4389;41.932;25.904;2024-02-26T02:37:29;13.13;;;9.43;;
8704;SDS011;4389;41.932;25.904;2024-02-26T02:39:57;10.00;;;8.70;;
8704;SDS011;4389;41.932;25.904;2024-02-26T02:42:24;12.30;;;8.33;;
8704;SDS011;4389;41.932;25.904;2024-02-26T02:44:51;12.73;;;8.40;;
8704;SDS011;4389;41.932;25.904;2024-02-26T02:47:18;13.70;;;9.17;;
8704;SDS011;4389;41.932;25.904;2024-02-26T02:49:45;11.77;;;9.07;;
8704;SDS011;4389;41.932;25.904;2024-02-26T02:52:12;13.47;;;8.20;;
8704;SDS011;4389;41.932;25.904;2024-02-26T02:54:38;9.17;;;8.27;;
8704;SDS011;4389;41.932;25.904;2024-02-26T02:57:08;11.03;;;8.77;;
8704;SDS011;4389;41.932;25.904;2024-02-26T02:59:35;10.20;;;9.03;;
8704;SDS011;4389;41.932;25.904;2024-02-26T03:02:02;14.40;;;9.50;;
8704;SDS011;4389;41.932;25.904;2024-02-26T03:04:29;13.20;;;8.90;;
8704;SDS011;4389;41.932;25.904;2024-02-26T03:06:56;12.03;;;9.13;;
8704;SDS011;4389;41.932;25.904;2024-02-26T03:09:23;13.50;;;8.93;;
8704;SDS011;4389;41.932;25.904;2024-02-26T03:11:50;12.70;;;9.53;;
8704;SDS011;4389;41.932;25.904;2024-02-26T03:14:18;11.17;;;9.83;;
8704;SDS011;4389;41.932;25.904;2024-02-26T03:16:45;10.03;;;8.70;;
8704;SDS011;4389;41.932;25.904;2024-02-26T03:19:14;11.40;;;9.40;;
8704;SDS011;4389;41.932;25.904;2024-02-26T03:21:41;13.33;;;9.30;;
8704;SDS011;4389;41.932;25.904;2024-02-26T03:24:08;17.50;;;9.60;;
8704;SDS011;4389;41.932;25.904;2024-02-26T03:26:35;11.63;;;9.87;;
8704;SDS011;4389;41.932;25.904;2024-02-26T03:29:02;13.87;;;10.00;;
8704;SDS011;4389;41.932;25.904;2024-02-26T03:31:30;10.97;;;9.80;;
8704;SDS011;4389;41.932;25.904;2024-02-26T03:33:57;10.83;;;9.30;;
8704;SDS011;4389;41.932;25.904;2024-02-26T03:36:24;10.77;;;9.67;;
8704;SDS011;4389;41.932;25.904;2024-02-26T03:38:52;11.00;;;9.60;;
8704;SDS011;4389;41.932;25.904;2024-02-26T03:41:18;12.13;;;10.83;;
8704;SDS011;4389;41.932;25.904;2024-02-26T03:43:45;13.50;;;10.07;;
8704;SDS011;4389;41.932;25.904;2024-02-26T03:46:13;14.90;;;10.97;;
8704;SDS011;4389;41.932;25.904;2024-02-26T03:48:41;15.67;;;10.20;;
8704;SDS011;4389;41.932;25.904;2024-02-26T03:51:08;10.93;;;9.23;;
8704;SDS011;4389;41.932;25.904;2024-02-26T03:53:35;14.90;;;10.33;;
8704;SDS011;4389;41.932;25.904;2024-02-26T03:56:03;16.37;;;10.37;;
8704;SDS011;4389;41.932;25.904;2024-02-26T03:58:30;19.60;;;10.77;;
8704;SDS011;4389;41.932;25.904;2024-02-26T04:00:57;17.97;;;10.47;;
8704;SDS011;4389;41.932;25.904;2024-02-26T04:03:25;18.43;;;11.53;;
8704;SDS011;4389;41.932;25.904;2024-02-26T04:05:53;12.70;;;10.83;;
8704;SDS011;4389;41.932;25.904;2024-02-26T04:08:20;18.43;;;16.43;;
8704;SDS011;4389;41.932;25.904;2024-02-26T04:10:47;17.10;;;12.83;;
8704;SDS011;4389;41.932;25.904;2024-02-26T04:13:13;16.50;;;12.77;;
8704;SDS011;4389;41.932;25.904;2024-02-26T04:15:41;14.37;;;11.83;;
8704;SDS011;4389;41.932;25.904;2024-02-26T04:18:08;18.30;;;14.23;;
8704;SDS011;4389;41.932;25.904;2024-02-26T04:20:35;13.73;;;12.33;;
8704;SDS011;4389;41.932;25.904;2024-02-26T04:23:03;17.30;;;12.10;;
8704;SDS011;4389;41.932;25.904;2024-02-26T04:25:30;15.13;;;11.20;;
8704;SDS011;4389;41.932;25.904;2024-02-26T04:27:57;119.07;;;14.80;;
8704;SDS011;4389;41.932;25.904;2024-02-26T04:30:24;34.07;;;11.73;;
8704;SDS011;4389;41.932;25.904;2024-02-26T04:32:51;17.53;;;11.33;;
8704;SDS011;4389;41.932;25.904;2024-02-26T04:35:18;19.53;;;10.77;;
8704;SDS011;4389;41.932;25.904;2024-02-26T04:37:45;22.03;;;15.83;;
8704;SDS011;4389;41.932;25.904;2024-02-26T04:40:13;36.33;;;14.63;;
8704;SDS011;4389;41.932;25.904;2024-02-26T04:42:40;12.43;;;10.33;;
8704;SDS011;4389;41.932;25.904;2024-02-26T04:45:07;15.20;;;11.03;;
8704;SDS011;4389;41.932;25.904;2024-02-26T04:47:35;50.10;;;11.80;;
8704;SDS011;4389;41.932;25.904;2024-02-26T04:50:01;20.20;;;11.73;;
8704;SDS011;4389;41.932;25.904;2024-02-26T04:52:27;29.33;;;12.27;;
8704;SDS011;4389;41.932;25.904;2024-02-26T04:54:54;17.90;;;10.77;;
8704;SDS011;4389;41.932;25.904;2024-02-26T04:57:22;14.53;;;10.77;;
8704;SDS011;4389;41.932;25.904;2024-02-26T04:59:49;18.30;;;10.33;;
8704;SDS011;4389;41.932;25.904;2024-02-26T05:02:16;15.47;;;10.27;;
8704;SDS011;4389;41.932;25.904;2024-02-26T05:04:43;18.43;;;11.67;;
8704;SDS011;4389;41.932;25.904;2024-02-26T05:07:10;11.77;;;10.13;;
8704;SDS011;4389;41.932;25.904;2024-02-26T05:09:37;14.97;;;10.50;;
8704;SDS011;4389;41.932;25.904;2024-02-26T05:12:04;18.27;;;10.10;;
8704;SDS011;4389;41.932;25.904;2024-02-26T05:14:33;12.93;;;10.17;;
8704;SDS011;4389;41.932;25.904;2024-02-26T05:17:00;17.90;;;10.40;;
8704;SDS011;4389;41.932;25.904;2024-02-26T05:19:27;17.73;;;10.50;;
8704;SDS011;4389;41.932;25.904;2024-02-26T05:21:54;75.80;;;14.97;;
8704;SDS011;4389;41.932;25.904;2024-02-26T05:24:22;52.33;;;13.73;;
8704;SDS011;4389;41.932;25.904;2024-02-26T05:26:49;25.87;;;11.63;;
8704;SDS011;4389;41.932;25.904;2024-02-26T05:29:16;17.17;;;11.13;;
8704;SDS011;4389;41.932;25.904;2024-02-26T05:31:44;17.53;;;10.13;;
8704;SDS011;4389;41.932;25.904;2024-02-26T05:34:11;15.13;;;10.70;;
8704;SDS011;4389;41.932;25.904;2024-02-26T05:36:38;18.33;;;13.13;;
8704;SDS011;4389;41.932;25.904;2024-02-26T05:39:04;31.30;;;13.77;;
8704;SDS011;4389;41.932;25.904;2024-02-26T05:41:32;20.27;;;13.07;;
8704;SDS011;4389;41.932;25.904;2024-02-26T05:44:00;24.47;;;11.37;;
8704;SDS011;4389;41.932;25.904;2024-02-26T05:46:27;14.60;;;10.97;;
8704;SDS011;4389;41.932;25.904;2024-02-26T05:48:55;15.27;;;11.27;;
8704;SDS011;4389;41.932;25.904;2024-02-26T05:51:22;20.07;;;12.83;;
8704;SDS011;4389;41.932;25.904;2024-02-26T05:53:49;20.83;;;13.13;;
8704;SDS011;4389;41.932;25.904;2024-02-26T05:56:19;23.40;;;12.60;;
8704;SDS011;4389;41.932;25.904;2024-02-26T05:58:47;19.53;;;12.80;;
8704;SDS011;4389;41.932;25.904;2024-02-26T06:01:15;21.40;;;12.07;;
8704;SDS011;4389;41.932;25.904;2024-02-26T06:03:42;21.13;;;15.87;;
8704;SDS011;4389;41.932;25.904;2024-02-26T06:06:11;92.77;;;31.57;;
8704;SDS011;4389;41.932;25.904;2024-02-26T06:08:38;25.73;;;15.00;;
8704;SDS011;4389;41.932;25.904;2024-02-26T06:11:05;17.33;;;10.23;;
8704;SDS011;4389;41.932;25.904;2024-02-26T06:13:33;16.53;;;10.30;;
8704;SDS011;4389;41.932;25.904;2024-02-26T06:15:59;26.07;;;12.27;;
8704;SDS011;4389;41.932;25.904;2024-02-26T06:18:27;33.10;;;12.77;;
8704;SDS011;4389;41.932;25.904;2024-02-26T06:20:54;23.80;;;13.00;;
8704;SDS011;4389;41.932;25.904;2024-02-26T06:23:23;20.97;;;12.13;;
8704;SDS011;4389;41.932;25.904;2024-02-26T06:25:50;13.17;;;10.07;;
8704;SDS011;4389;41.932;25.904;2024-02-26T06:28:17;15.83;;;9.77;;
8704;SDS011;4389;41.932;25.904;2024-02-26T06:30:43;19.87;;;10.83;;
8704;SDS011;4389;41.932;25.904;2024-02-26T06:33:11;15.30;;;11.63;;
8704;SDS011;4389;41.932;25.904;2024-02-26T06:35:39;19.93;;;14.60;;
8704;SDS011;4389;41.932;25.904;2024-02-26T06:38:06;23.83;;;17.63;;
8704;SDS011;4389;41.932;25.904;2024-02-26T06:40:34;22.37;;;18.60;;
8704;SDS011;4389;41.932;25.904;2024-02-26T06:43:01;23.00;;;17.13;;
8704;SDS011;4389;41.932;25.904;2024-02-26T06:45:28;19.93;;;13.03;;
8704;SDS011;4389;41.932;25.904;2024-02-26T06:47:55;18.63;;;11.63;;
8704;SDS011;4389;41.932;25.904;2024-02-26T06:50:22;22.10;;;13.27;;
8704;SDS011;4389;41.932;25.904;2024-02-26T06:52:50;23.67;;;13.43;;
8704;SDS011;4389;41.932;25.904;2024-02-26T06:55:17;15.33;;;12.50;;
8704;SDS011;4389;41.932;25.904;2024-02-26T06:57:45;24.50;;;11.43;;
8704;SDS011;4389;41.932;25.904;2024-02-26T07:00:12;16.93;;;12.03;;
8704;SDS011;4389;41.932;25.904;2024-02-26T07:02:41;20.50;;;11.03;;
8704;SDS011;4389;41.932;25.904;2024-02-26T07:05:08;15.43;;;11.63;;
8704;SDS011;4389;41.932;25.904;2024-02-26T07:07:36;16.93;;;11.40;;
8704;SDS011;4389;41.932;25.904;2024-02-26T07:10:03;14.93;;;10.33;;
8704;SDS011;4389;41.932;25.904;2024-02-26T07:12:31;16.70;;;11.73;;
8704;SDS011;4389;41.932;25.904;2024-02-26T07:15:00;18.33;;;11.57;;
8704;SDS011;4389;41.932;25.904;2024-02-26T07:17:27;31.03;;;10.57;;
8704;SDS011;4389;41.932;25.904;2024-02-26T07:19:54;16.27;;;10.37;;
8704;SDS011;4389;41.932;25.904;2024-02-26T07:22:21;21.97;;;12.33;;
8704;SDS011;4389;41.932;25.904;2024-02-26T07:24:49;22.70;;;16.53;;
8704;SDS011;4389;41.932;25.904;2024-02-26T07:27:16;24.77;;;16.00;;
8704;SDS011;4389;41.932;25.904;2024-02-26T07:29:43;21.70;;;16.37;;
8704;SDS011;4389;41.932;25.904;2024-02-26T07:32:12;20.57;;;14.10;;
8704;SDS011;4389;41.932;25.904;2024-02-26T07:34:39;15.67;;;12.17;;
8704;SDS011;4389;41.932;25.904;2024-02-26T07:37:06;21.57;;;11.50;;
8704;SDS011;4389;41.932;25.904;2024-02-26T07:39:34;33.87;;;12.10;;
8704;SDS011;4389;41.932;25.904;2024-02-26T07:42:01;27.40;;;12.43;;
8704;SDS011;4389;41.932;25.904;2024-02-26T07:44:27;26.73;;;11.37;;
8704;SDS011;4389;41.932;25.904;2024-02-26T07:46:54;22.60;;;12.43;;
8704;SDS011;4389;41.932;25.904;2024-02-26T07:49:23;23.50;;;11.90;;
8704;SDS011;4389;41.932;25.904;2024-02-26T07:51:49;31.70;;;13.73;;
8704;SDS011;4389;41.932;25.904;2024-02-26T07:54:16;20.10;;;11.00;;
8704;SDS011;4389;41.932;25.904;2024-02-26T07:56:44;15.60;;;9.83;;
8704;SDS011;4389;41.932;25.904;2024-02-26T07:59:11;16.23;;;10.93;;
8704;SDS011;4389;41.932;25.904;2024-02-26T08:01:38;20.53;;;10.90;;
8704;SDS011;4389;41.932;25.904;2024-02-26T08:04:07;20.07;;;11.00;;
8704;SDS011;4389;41.932;25.904;2024-02-26T08:06:35;19.50;;;12.17;;
8704;SDS011;4389;41.932;25.904;2024-02-26T08:09:02;19.83;;;10.47;;
8704;SDS011;4389;41.932;25.904;2024-02-26T08:11:29;24.63;;;14.07;;
8704;SDS011;4389;41.932;25.904;2024-02-26T08:13:56;27.87;;;13.27;;
8704;SDS011;4389;41.932;25.904;2024-02-26T08:16:24;17.80;;;11.63;;
8704;SDS011;4389;41.932;25.904;2024-02-26T08:18:51;17.87;;;11.10;;
8704;SDS011;4389;41.932;25.904;2024-02-26T08:21:18;27.40;;;11.33;;
8704;SDS011;4389;41.932;25.904;2024-02-26T08:23:46;16.17;;;11.53;;
8704;SDS011;4389;41.932;25.904;2024-02-26T08:26:13;18.17;;;11.60;;
8704;SDS011;4389;41.932;25.904;2024-02-26T08:28:40;25.90;;;12.33;;
8704;SDS011;4389;41.932;25.904;2024-02-26T08:31:07;22.70;;;11.50;;
8704;SDS011;4389;41.932;25.904;2024-02-26T08:33:34;24.27;;;11.30;;
8704;SDS011;4389;41.932;25.904;2024-02-26T08:36:03;18.53;;;10.27;;
8704;SDS011;4389;41.932;25.904;2024-02-26T08:38:32;14.93;;;10.57;;
8704;SDS011;4389;41.932;25.904;2024-02-26T08:41:01;32.90;;;13.23;;
8704;SDS011;4389;41.932;25.904;2024-02-26T08:43:28;15.20;;;11.63;;
8704;SDS011;4389;41.932;25.904;2024-02-26T08:45:56;21.97;;;11.90;;
8704;SDS011;4389;41.932;25.904;2024-02-26T08:48:23;24.77;;;12.77;;
8704;SDS011;4389;41.932;25.904;2024-02-26T08:50:49;26.27;;;12.63;;
8704;SDS011;4389;41.932;25.904;2024-02-26T08:53:16;15.30;;;12.03;;
8704;SDS011;4389;41.932;25.904;2024-02-26T08:55:43;22.97;;;12.03;;
8704;SDS011;4389;41.932;25.904;2024-02-26T08:58:12;30.10;;;11.87;;
8704;SDS011;4389;41.932;25.904;2024-02-26T09:00:39;14.20;;;10.30;;
8704;SDS011;4389;41.932;25.904;2024-02-26T09:03:05;14.63;;;10.60;;
8704;SDS011;4389;41.932;25.904;2024-02-26T09:05:32;17.53;;;11.17;;
8704;SDS011;4389;41.932;25.904;2024-02-26T09:08:00;16.33;;;11.13;;
8704;SDS011;4389;41.932;25.904;2024-02-26T09:10:26;26.43;;;12.00;;
8704;SDS011;4389;41.932;25.904;2024-02-26T09:12:53;22.30;;;10.87;;
8704;SDS011;4389;41.932;25.904;2024-02-26T09:15:23;15.03;;;10.50;;
8704;SDS011;4389;41.932;25.904;2024-02-26T09:17:49;12.70;;;10.17;;
8704;SDS011;4389;41.932;25.904;2024-02-26T09:20:17;17.03;;;10.47;;
8704;SDS011;4389;41.932;25.904;2024-02-26T09:22:45;21.63;;;10.47;;
8704;SDS011;4389;41.932;25.904;2024-02-26T09:25:12;17.87;;;9.47;;
8704;SDS011;4389;41.932;25.904;2024-02-26T09:27:41;15.33;;;10.23;;
8704;SDS011;4389;41.932;25.904;2024-02-26T09:30:08;15.30;;;9.43;;
8704;SDS011;4389;41.932;25.904;2024-02-26T09:32:37;16.60;;;11.07;;
8704;SDS011;4389;41.932;25.904;2024-02-26T09:35:04;28.83;;;10.53;;
8704;SDS011;4389;41.932;25.904;2024-02-26T09:37:32;21.83;;;10.93;;
8704;SDS011;4389;41.932;25.904;2024-02-26T09:40:02;36.03;;;10.13;;
8704;SDS011;4389;41.932;25.904;2024-02-26T09:42:31;26.03;;;10.20;;
8704;SDS011;4389;41.932;25.904;2024-02-26T09:45:00;15.47;;;9.13;;
8704;SDS011;4389;41.932;25.904;2024-02-26T09:47:33;9.70;;;7.90;;
8704;SDS011;4389;41.932;25.904;2024-02-26T09:50:05;23.07;;;9.47;;
8704;SDS011;4389;41.932;25.904;2024-02-26T09:52:38;14.90;;;8.03;;
8704;SDS011;4389;41.932;25.904;2024-02-26T09:55:06;15.87;;;9.20;;
8704;SDS011;4389;41.932;25.904;2024-02-26T09:57:36;15.70;;;9.13;;
8704;SDS011;4389;41.932;25.904;2024-02-26T10:00:03;13.20;;;8.53;;
8704;SDS011;4389;41.932;25.904;2024-02-26T10:02:35;11.27;;;8.33;;
8704;SDS011;4389;41.932;25.904;2024-02-26T10:05:04;14.80;;;8.23;;
8704;SDS011;4389;41.932;25.904;2024-02-26T10:07:33;12.10;;;8.67;;
8704;SDS011;4389;41.932;25.904;2024-02-26T10:10:02;14.47;;;8.93;;
8704;SDS011;4389;41.932;25.904;2024-02-26T10:12:30;17.70;;;9.27;;
8704;SDS011;4389;41.932;25.904;2024-02-26T10:14:57;13.10;;;9.10;;
8704;SDS011;4389;41.932;25.904;2024-02-26T10:17:24;13.27;;;8.37;;
8704;SDS011;4389;41.932;25.904;2024-02-26T10:19:53;16.63;;;9.67;;
8704;SDS011;4389;41.932;25.904;2024-02-26T10:22:23;14.70;;;9.40;;
8704;SDS011;4389;41.932;25.904;2024-02-26T10:24:50;13.83;;;9.50;;
8704;SDS011;4389;41.932;25.904;2024-02-26T10:27:18;16.13;;;9.93;;
8704;SDS011;4389;41.932;25.904;2024-02-26T10:29:46;12.93;;;10.27;;
8704;SDS011;4389;41.932;25.904;2024-02-26T10:32:13;18.87;;;10.53;;
8704;SDS011;4389;41.932;25.904;2024-02-26T10:34:41;12.90;;;10.00;;
8704;SDS011;4389;41.932;25.904;2024-02-26T10:37:09;20.97;;;12.77;;
8704;SDS011;4389;41.932;25.904;2024-02-26T10:39:37;16.03;;;9.50;;
8704;SDS011;4389;41.932;25.904;2024-02-26T10:42:04;13.27;;;9.27;;
8704;SDS011;4389;41.932;25.904;2024-02-26T10:44:35;14.60;;;9.77;;
8704;SDS011;4389;41.932;25.904;2024-02-26T10:47:01;14.60;;;11.33;;
8704;SDS011;4389;41.932;25.904;2024-02-26T10:49:29;10.27;;;8.37;;
8704;SDS011;4389;41.932;25.904;2024-02-26T10:51:56;14.37;;;10.37;;
8704;SDS011;4389;41.932;25.904;2024-02-26T10:54:25;15.53;;;9.33;;
8704;SDS011;4389;41.932;25.904;2024-02-26T10:56:55;15.87;;;11.20;;
8704;SDS011;4389;41.932;25.904;2024-02-26T10:59:25;15.57;;;7.83;;
8704;SDS011;4389;41.932;25.904;2024-02-26T11:01:52;10.83;;;8.13;;
8704;SDS011;4389;41.932;25.904;2024-02-26T11:04:21;15.57;;;9.73;;
8704;SDS011;4389;41.932;25.904;2024-02-26T11:06:50;35.47;;;9.87;;
8704;SDS011;4389;41.932;25.904;2024-02-26T11:09:17;11.10;;;8.03;;
8704;SDS011;4389;41.932;25.904;2024-02-26T11:11:46;21.60;;;9.57;;
8704;SDS011;4389;41.932;25.904;2024-02-26T11:14:15;15.80;;;8.03;;
8704;SDS011;4389;41.932;25.904;2024-02-26T11:16:43;10.87;;;7.33;;
8704;SDS011;4389;41.932;25.904;2024-02-26T11:19:10;11.67;;;7.20;;
8704;SDS011;4389;41.932;25.904;2024-02-26T11:21:39;13.50;;;8.17;;
8704;SDS011;4389;41.932;25.904;2024-02-26T11:24:08;15.57;;;7.40;;
8704;SDS011;4389;41.932;25.904;2024-02-26T11:26:39;16.40;;;7.90;;
8704;SDS011;4389;41.932;25.904;2024-02-26T11:29:12;19.20;;;7.30;;
8704;SDS011;4389;41.932;25.904;2024-02-26T11:31:44;11.07;;;7.30;;
8704;SDS011;4389;41.932;25.904;2024-02-26T11:34:11;9.70;;;7.93;;
8704;SDS011;4389;41.932;25.904;2024-02-26T11:36:38;43.30;;;10.07;;
8704;SDS011;4389;41.932;25.904;2024-02-26T11:39:05;12.70;;;7.40;;
8704;SDS011;4389;41.932;25.904;2024-02-26T11:41:33;29.03;;;9.03;;
8704;SDS011;4389;41.932;25.904;2024-02-26T11:44:00;15.90;;;9.30;;
8704;SDS011;4389;41.932;25.904;2024-02-26T11:46:31;14.20;;;7.97;;
8704;SDS011;4389;41.932;25.904;2024-02-26T11:48:59;24.00;;;8.20;;
8704;SDS011;4389;41.932;25.904;2024-02-26T11:51:28;14.20;;;6.50;;
8704;SDS011;4389;41.932;25.904;2024-02-26T11:53:59;8.90;;;6.13;;
8704;SDS011;4389;41.932;25.904;2024-02-26T11:56:26;16.67;;;7.73;;
8704;SDS011;4389;41.932;25.904;2024-02-26T11:58:58;9.73;;;7.80;;
8704;SDS011;4389;41.932;25.904;2024-02-26T12:01:37;10.73;;;6.80;;
8704;SDS011;4389;41.932;25.904;2024-02-26T12:04:13;16.73;;;8.23;;
8704;SDS011;4389;41.932;25.904;2024-02-26T12:06:46;12.20;;;7.30;;
8704;SDS011;4389;41.932;25.904;2024-02-26T12:11:59;10.47;;;7.57;;
8704;SDS011;4389;41.932;25.904;2024-02-26T12:14:28;10.43;;;7.20;;
8704;SDS011;4389;41.932;25.904;2024-02-26T12:16:56;11.20;;;7.70;;
8704;SDS011;4389;41.932;25.904;2024-02-26T12:19:23;29.43;;;8.73;;
8704;SDS011;4389;41.932;25.904;2024-02-26T12:21:51;10.63;;;6.70;;
8704;SDS011;4389;41.932;25.904;2024-02-26T12:24:20;19.33;;;7.53;;
8704;SDS011;4389;41.932;25.904;2024-02-26T12:26:47;10.60;;;7.17;;
8704;SDS011;4389;41.932;25.904;2024-02-26T12:29:14;13.60;;;7.03;;
8704;SDS011;4389;41.932;25.904;2024-02-26T12:31:41;11.33;;;7.70;;
8704;SDS011;4389;41.932;25.904;2024-02-26T12:34:10;19.80;;;8.33;;
8704;SDS011;4389;41.932;25.904;2024-02-26T12:36:39;17.60;;;7.67;;
8704;SDS011;4389;41.932;25.904;2024-02-26T12:39:06;45.63;;;10.43;;
8704;SDS011;4389;41.932;25.904;2024-02-26T12:41:34;17.07;;;8.40;;
8704;SDS011;4389;41.932;25.904;2024-02-26T12:44:01;16.30;;;8.33;;
8704;SDS011;4389;41.932;25.904;2024-02-26T12:46:28;13.07;;;8.23;;
8704;SDS011;4389;41.932;25.904;2024-02-26T12:48:56;13.07;;;9.03;;
8704;SDS011;4389;41.932;25.904;2024-02-26T12:51:26;12.57;;;7.43;;
8704;SDS011;4389;41.932;25.904;2024-02-26T12:53:54;19.83;;;7.27;;
8704;SDS011;4389;41.932;25.904;2024-02-26T12:56:21;10.77;;;6.93;;
8704;SDS011;4389;41.932;25.904;2024-02-26T12:58:49;14.27;;;6.90;;
8704;SDS011;4389;41.932;25.904;2024-02-26T13:01:19;17.40;;;6.83;;
8704;SDS011;4389;41.932;25.904;2024-02-26T13:03:48;21.63;;;8.20;;
8704;SDS011;4389;41.932;25.904;2024-02-26T13:06:17;19.27;;;7.73;;
8704;SDS011;4389;41.932;25.904;2024-02-26T13:08:46;12.33;;;7.27;;
8704;SDS011;4389;41.932;25.904;2024-02-26T13:11:13;19.40;;;7.97;;
8704;SDS011;4389;41.932;25.904;2024-02-26T13:13:40;13.63;;;8.80;;
8704;SDS011;4389;41.932;25.904;2024-02-26T13:16:10;19.47;;;8.07;;
8704;SDS011;4389;41.932;25.904;2024-02-26T13:18:40;13.73;;;7.80;;
8704;SDS011;4389;41.932;25.904;2024-02-26T13:21:08;12.87;;;7.33;;
8704;SDS011;4389;41.932;25.904;2024-02-26T13:23:37;16.03;;;7.40;;
8704;SDS011;4389;41.932;25.904;2024-02-26T13:26:06;15.27;;;7.73;;
8704;SDS011;4389;41.932;25.904;2024-02-26T13:28:35;12.80;;;7.50;;
8704;SDS011;4389;41.932;25.904;2024-02-26T13:31:02;18.27;;;7.80;;
8704;SDS011;4389;41.932;25.904;2024-02-26T13:33:29;17.13;;;7.77;;
8704;SDS011;4389;41.932;25.904;2024-02-26T13:35:57;18.27;;;8.13;;
8704;SDS011;4389;41.932;25.904;2024-02-26T13:38:25;11.10;;;7.57;;
8704;SDS011;4389;41.932;25.904;2024-02-26T13:40:53;15.40;;;8.13;;
8704;SDS011;4389;41.932;25.904;2024-02-26T13:43:22;17.00;;;7.77;;
8704;SDS011;4389;41.932;25.904;2024-02-26T13:45:50;14.80;;;7.80;;
8704;SDS011;4389;41.932;25.904;2024-02-26T13:48:17;22.03;;;8.87;;
8704;SDS011;4389;41.932;25.904;2024-02-26T13:50:43;12.60;;;7.30;;
8704;SDS011;4389;41.932;25.904;2024-02-26T13:53:11;16.87;;;8.80;;
8704;SDS011;4389;41.932;25.904;2024-02-26T13:55:39;11.17;;;7.77;;
8704;SDS011;4389;41.932;25.904;2024-02-26T13:58:08;16.50;;;7.47;;
8704;SDS011;4389;41.932;25.904;2024-02-26T14:00:40;11.67;;;8.23;;
8704;SDS011;4389;41.932;25.904;2024-02-26T14:03:07;44.97;;;10.97;;
8704;SDS011;4389;41.932;25.904;2024-02-26T14:05:33;14.83;;;7.87;;
8704;SDS011;4389;41.932;25.904;2024-02-26T14:08:00;16.17;;;7.90;;
8704;SDS011;4389;41.932;25.904;2024-02-26T14:10:28;17.13;;;8.30;;
8704;SDS011;4389;41.932;25.904;2024-02-26T14:12:55;17.23;;;7.63;;
8704;SDS011;4389;41.932;25.904;2024-02-26T14:15:22;13.67;;;8.23;;
8704;SDS011;4389;41.932;25.904;2024-02-26T14:17:51;14.73;;;7.20;;
8704;SDS011;4389;41.932;25.904;2024-02-26T14:20:21;13.83;;;7.37;;
8704;SDS011;4389;41.932;25.904;2024-02-26T14:22:49;16.60;;;7.80;;
8704;SDS011;4389;41.932;25.904;2024-02-26T14:25:17;12.77;;;7.87;;
8704;SDS011;4389;41.932;25.904;2024-02-26T14:27:45;13.30;;;9.10;;
8704;SDS011;4389;41.932;25.904;2024-02-26T14:30:12;14.40;;;10.53;;
8704;SDS011;4389;41.932;25.904;2024-02-26T14:32:40;13.10;;;9.93;;
8704;SDS011;4389;41.932;25.904;2024-02-26T14:35:08;27.90;;;12.77;;
8704;SDS011;4389;41.932;25.904;2024-02-26T14:37:35;26.10;;;12.80;;
8704;SDS011;4389;41.932;25.904;2024-02-26T14:40:02;16.00;;;12.07;;
8704;SDS011;4389;41.932;25.904;2024-02-26T14:42:30;13.77;;;8.50;;
8704;SDS011;4389;41.932;25.904;2024-02-26T14:44:57;10.57;;;7.67;;
8704;SDS011;4389;41.932;25.904;2024-02-26T14:47:25;16.27;;;8.30;;
8704;SDS011;4389;41.932;25.904;2024-02-26T14:49:51;18.27;;;9.60;;